createdAt,value
2019-05-19T00:00:48.239Z,81.48
2019-05-19T00:01:48.233Z,81.93
2019-05-19T00:02:48.327Z,81.62
2019-05-19T00:03:48.205Z,82.33
2019-05-19T00:04:48.206Z,82.33
2019-05-19T00:05:48.177Z,81.72
2019-05-19T00:06:48.169Z,82.13
2019-05-19T00:07:48.194Z,82.13
2019-05-19T00:08:48.151Z,82.13
2019-05-19T00:09:48.140Z,82.03
2019-05-19T00:10:48.129Z,83.35
2019-05-19T00:11:48.119Z,82.94
2019-05-19T00:12:48.111Z,82.37
2019-05-19T00:13:48.108Z,82.43
2019-05-19T00:14:48.079Z,81.41
2019-05-19T00:15:48.072Z,82.54
2019-05-19T00:16:48.072Z,83.45
2019-05-19T00:17:48.076Z,83.18
2019-05-19T00:18:48.039Z,83.39
2019-05-19T00:19:48.030Z,83.59
2019-05-19T00:20:48.012Z,82.68
2019-05-19T00:21:47.999Z,82.78
2019-05-19T00:22:47.988Z,82.27
2019-05-19T00:23:47.999Z,82.47
2019-05-19T00:24:48.001Z,82.37
2019-05-19T00:25:47.957Z,83.59
2019-05-19T00:26:47.946Z,82.88
2019-05-19T00:27:47.939Z,82.17
2019-05-19T00:28:47.934Z,83.70
2019-05-19T00:29:47.918Z,83.59
2019-05-19T00:30:47.911Z,83.18
2019-05-19T00:31:47.892Z,83.70
2019-05-19T00:32:47.878Z,83.49
2019-05-19T00:33:47.866Z,83.73
2019-05-19T00:34:47.880Z,82.92
2019-05-19T00:35:47.845Z,83.84
2019-05-19T00:36:47.836Z,83.49
2019-05-19T00:37:47.824Z,84.55
2019-05-19T00:38:47.825Z,85.57
2019-05-19T00:39:47.798Z,85.77
2019-05-19T00:40:47.812Z,85.77
2019-05-19T00:41:47.777Z,84.96
2019-05-19T00:42:47.763Z,85.16
2019-05-19T00:43:47.771Z,85.06
2019-05-19T00:44:47.759Z,85.47
2019-05-19T00:45:47.736Z,85.51
2019-05-19T00:46:47.723Z,84.04
2019-05-19T00:47:47.706Z,83.94
2019-05-19T00:48:47.697Z,83.87
2019-05-19T00:49:47.702Z,83.87
2019-05-19T00:50:47.681Z,83.98
2019-05-19T00:51:47.665Z,83.37
2019-05-19T00:52:47.665Z,83.16
2019-05-19T00:53:47.642Z,83.57
2019-05-19T00:54:47.668Z,83.67
2019-05-19T00:55:47.652Z,83.57
2019-05-19T00:56:47.614Z,83.57
2019-05-19T00:57:47.596Z,83.67
2019-05-19T00:58:47.668Z,85.82
2019-05-19T00:59:47.573Z,85.30
2019-05-19T01:00:47.561Z,84.59
2019-05-19T01:01:47.566Z,84.63
2019-05-19T01:02:47.542Z,83.87
2019-05-19T01:03:47.529Z,83.61
2019-05-19T01:04:47.514Z,83.87
2019-05-19T01:05:47.517Z,84.42
2019-05-19T01:06:47.502Z,84.01
2019-05-19T01:07:47.480Z,83.61
2019-05-19T01:08:47.471Z,85.35
2019-05-19T01:09:47.459Z,84.94
2019-05-19T01:10:47.458Z,84.94
2019-05-19T01:11:47.445Z,83.81
2019-05-19T01:12:47.424Z,82.69
2019-05-19T01:13:47.416Z,83.81
2019-05-19T01:14:47.403Z,84.22
2019-05-19T01:15:47.441Z,84.12
2019-05-19T01:16:47.380Z,83.95
2019-05-19T01:17:47.367Z,85.18
2019-05-19T01:18:47.355Z,84.26
2019-05-19T01:19:55.633Z,83.85
2019-05-19T01:20:48.349Z,85.38
2019-05-19T01:21:47.330Z,85.28
2019-05-19T01:22:47.315Z,84.98
2019-05-19T01:23:47.298Z,84.67
2019-05-19T01:24:47.296Z,83.65
2019-05-19T01:25:47.297Z,83.54
2019-05-19T01:26:47.266Z,84.16
2019-05-19T01:27:47.264Z,84.16
2019-05-19T01:28:47.249Z,83.85
2019-05-19T01:29:47.234Z,83.95
2019-05-19T01:30:47.223Z,85.38
2019-05-19T01:31:47.216Z,85.79
2019-05-19T01:32:47.283Z,85.79
2019-05-19T01:33:47.188Z,85.89
2019-05-19T01:34:47.176Z,85.89
2019-05-19T01:35:47.166Z,86.00
2019-05-19T01:36:47.158Z,85.89
2019-05-19T01:37:47.140Z,87.32
2019-05-19T01:38:47.152Z,86.71
2019-05-19T01:39:47.137Z,86.30
2019-05-19T01:40:47.105Z,86.91
2019-05-19T01:41:47.093Z,86.82
2019-05-19T01:42:47.084Z,85.94
2019-05-19T01:43:47.072Z,86.14
2019-05-19T01:44:47.073Z,85.02
2019-05-19T01:45:47.046Z,86.00
2019-05-19T01:46:47.044Z,85.02
2019-05-19T01:47:47.024Z,85.22
2019-05-19T01:48:47.017Z,85.42
2019-05-19T01:49:47.009Z,85.22
2019-05-19T01:50:47.012Z,85.22
2019-05-19T01:51:46.982Z,84.30
2019-05-19T01:52:46.976Z,85.32
2019-05-19T01:53:46.971Z,85.32
2019-05-19T01:54:46.945Z,86.04
2019-05-19T01:55:46.943Z,86.14
2019-05-19T01:56:46.925Z,87.16
2019-05-19T01:57:46.914Z,86.14
2019-05-19T01:58:46.924Z,85.32
2019-05-19T01:59:46.895Z,86.18
2019-05-19T02:00:46.880Z,88.29
2019-05-19T02:01:46.870Z,88.74
2019-05-19T02:02:46.854Z,89.76
2019-05-19T02:03:46.871Z,89.86
2019-05-19T02:04:46.834Z,90.12
2019-05-19T02:05:46.821Z,89.72
2019-05-19T02:06:46.809Z,88.90
2019-05-19T02:07:46.805Z,88.79
2019-05-19T02:08:46.809Z,88.74
2019-05-19T02:09:46.792Z,88.94
2019-05-19T02:10:46.764Z,88.84
2019-05-19T02:11:46.758Z,88.12
2019-05-19T02:12:46.740Z,87.20
2019-05-19T02:13:46.731Z,86.90
2019-05-19T02:14:46.743Z,87.00
2019-05-19T02:15:46.710Z,86.69
2019-05-19T02:16:46.696Z,86.90
2019-05-19T02:17:46.687Z,87.71
2019-05-19T02:18:46.682Z,87.35
2019-05-19T02:19:46.683Z,87.71
2019-05-19T02:20:46.669Z,88.88
2019-05-19T02:21:46.641Z,88.02
2019-05-19T02:22:46.632Z,87.85
2019-05-19T02:23:46.621Z,87.41
2019-05-19T02:24:46.629Z,87.35
2019-05-19T02:25:46.618Z,86.94
2019-05-19T02:26:46.586Z,87.65
2019-05-19T02:27:46.579Z,87.45
2019-05-19T02:28:46.575Z,87.76
2019-05-19T02:29:46.568Z,88.06
2019-05-19T02:30:46.548Z,87.65
2019-05-19T02:31:46.532Z,87.35
2019-05-19T02:32:46.537Z,87.65
2019-05-19T02:33:46.517Z,87.24
2019-05-19T02:34:46.521Z,87.76
2019-05-19T02:35:46.502Z,87.85
2019-05-19T02:36:46.480Z,88.68
2019-05-19T02:37:46.468Z,88.47
2019-05-19T02:38:46.477Z,88.31
2019-05-19T02:39:46.473Z,88.06
2019-05-19T02:40:46.441Z,87.90
2019-05-19T02:41:46.423Z,87.49
2019-05-19T02:42:46.420Z,87.04
2019-05-19T02:43:46.406Z,86.05
2019-05-19T02:44:46.391Z,87.18
2019-05-19T02:45:46.396Z,87.29
2019-05-19T02:46:46.403Z,87.85
2019-05-19T02:47:46.371Z,87.18
2019-05-19T02:48:46.347Z,88.00
2019-05-19T02:49:46.351Z,87.79
2019-05-19T02:50:52.318Z,88.62
2019-05-19T02:51:47.325Z,88.10
2019-05-19T02:52:46.306Z,87.70
2019-05-19T02:53:46.299Z,88.10
2019-05-19T02:54:46.292Z,89.03
2019-05-19T02:55:46.310Z,89.33
2019-05-19T02:56:46.262Z,89.12
2019-05-19T02:57:46.249Z,89.23
2019-05-19T02:58:46.242Z,87.79
2019-05-19T02:59:46.231Z,87.90
2019-05-19T03:00:46.222Z,88.65
2019-05-19T03:01:46.254Z,88.51
2019-05-19T03:02:46.196Z,88.96
2019-05-19T03:03:46.189Z,88.62
2019-05-19T03:04:46.175Z,87.70
2019-05-19T03:05:46.165Z,87.79
2019-05-19T03:06:46.156Z,89.23
2019-05-19T03:07:46.156Z,89.17
2019-05-19T03:08:46.131Z,89.68
2019-05-19T03:09:46.121Z,89.06
2019-05-19T03:10:46.108Z,88.76
2019-05-19T03:11:46.130Z,88.86
2019-05-19T03:12:46.133Z,89.17
2019-05-19T03:13:46.076Z,88.56
2019-05-19T03:14:46.072Z,87.73
2019-05-19T03:15:46.056Z,87.84
2019-05-19T03:16:46.080Z,88.76
2019-05-19T03:17:46.032Z,88.96
2019-05-19T03:18:46.023Z,88.56
2019-05-19T03:19:46.009Z,88.76
2019-05-19T03:20:46.004Z,89.27
2019-05-19T03:21:45.992Z,89.47
2019-05-19T03:22:46.011Z,88.90
2019-05-19T03:23:45.966Z,89.72
2019-05-19T03:24:45.955Z,89.17
2019-05-19T03:25:45.954Z,88.80
2019-05-19T03:26:45.935Z,89.11
2019-05-19T03:27:45.923Z,90.23
2019-05-19T03:28:45.923Z,90.81
2019-05-19T03:29:45.902Z,90.70
2019-05-19T03:30:45.897Z,90.64
2019-05-19T03:31:45.882Z,90.23
2019-05-19T03:32:45.890Z,89.83
2019-05-19T03:33:45.891Z,89.42
2019-05-19T03:34:45.848Z,89.11
2019-05-19T03:35:45.832Z,88.80
2019-05-19T03:36:45.829Z,89.42
2019-05-19T03:37:45.825Z,89.11
2019-05-19T03:38:45.842Z,89.11
2019-05-19T03:39:45.788Z,88.90
2019-05-19T03:40:45.781Z,88.70
2019-05-19T03:41:45.770Z,88.70
2019-05-19T03:42:45.758Z,89.51
2019-05-19T03:43:45.750Z,89.21
2019-05-19T03:44:45.758Z,88.90
2019-05-19T03:45:45.724Z,89.42
2019-05-19T03:46:45.711Z,89.11
2019-05-19T03:47:45.725Z,90.34
2019-05-19T03:48:45.694Z,89.97
2019-05-19T03:49:45.678Z,89.31
2019-05-19T03:50:45.682Z,89.42
2019-05-19T03:51:45.662Z,89.36
2019-05-19T03:52:45.661Z,89.11
2019-05-19T03:53:45.655Z,88.84
2019-05-19T03:54:45.624Z,89.42
2019-05-19T03:55:45.610Z,89.45
2019-05-19T03:56:45.599Z,88.64
2019-05-19T03:57:45.590Z,89.72
2019-05-19T03:58:45.595Z,89.04
2019-05-19T03:59:45.565Z,89.04
2019-05-19T04:00:45.560Z,89.72
2019-05-19T04:01:45.545Z,89.45
2019-05-19T04:02:45.534Z,89.76
2019-05-19T04:03:45.544Z,88.94
2019-05-19T04:04:45.510Z,89.04
2019-05-19T04:05:45.508Z,89.45
2019-05-19T04:06:45.498Z,89.15
2019-05-19T04:07:45.483Z,88.84
2019-05-19T04:08:45.469Z,88.59
2019-05-19T04:09:45.469Z,87.30
2019-05-19T04:10:45.465Z,85.97
2019-05-19T04:11:45.436Z,85.56
2019-05-19T04:12:45.422Z,85.15
2019-05-19T04:13:45.417Z,85.25
2019-05-19T04:14:45.426Z,85.52
2019-05-19T04:15:45.414Z,86.24
2019-05-19T04:16:45.385Z,85.56
2019-05-19T04:17:45.373Z,85.22
2019-05-19T04:18:45.361Z,86.14
2019-05-19T04:19:45.358Z,86.14
2019-05-19T04:20:45.352Z,85.11
2019-05-19T04:21:49.088Z,85.01
2019-05-19T04:22:45.314Z,85.42
2019-05-19T04:23:45.308Z,84.39
2019-05-19T04:24:45.306Z,83.98
2019-05-19T04:25:45.299Z,84.19
2019-05-19T04:26:45.273Z,85.22
2019-05-19T04:27:45.258Z,85.22
2019-05-19T04:28:45.250Z,85.42
2019-05-19T04:29:45.235Z,85.42
2019-05-19T04:30:45.241Z,83.74
2019-05-19T04:31:45.237Z,83.84
2019-05-19T04:32:45.200Z,83.47
2019-05-19T04:33:45.193Z,84.29
2019-05-19T04:34:45.178Z,85.31
2019-05-19T04:35:45.188Z,85.07
2019-05-19T04:36:45.226Z,84.15
2019-05-19T04:37:45.147Z,84.91
2019-05-19T04:38:45.136Z,86.40
2019-05-19T04:39:45.135Z,87.22
2019-05-19T04:40:45.116Z,87.32
2019-05-19T04:41:45.115Z,87.43
2019-05-19T04:42:45.086Z,87.02
2019-05-19T04:43:45.080Z,87.22
2019-05-19T04:44:45.066Z,86.91
2019-05-19T04:45:45.067Z,86.30
2019-05-19T04:46:45.044Z,86.20
2019-05-19T04:47:45.032Z,85.48
2019-05-19T04:48:45.022Z,85.28
2019-05-19T04:49:45.022Z,86.30
2019-05-19T04:50:45.037Z,85.48
2019-05-19T04:51:45.001Z,84.83
2019-05-19T04:52:44.996Z,85.17
2019-05-19T04:53:44.986Z,84.77
2019-05-19T04:54:45.009Z,84.66
2019-05-19T04:55:44.976Z,86.98
2019-05-19T04:56:44.972Z,87.18
2019-05-19T04:57:44.966Z,87.79
2019-05-19T04:58:44.939Z,88.71
2019-05-19T04:59:44.897Z,88.92
2019-05-19T05:00:44.911Z,88.71
2019-05-19T05:01:44.906Z,88.71
2019-05-19T05:02:44.898Z,87.59
2019-05-19T05:03:44.855Z,87.90
2019-05-19T05:04:44.859Z,89.12
2019-05-19T05:05:44.837Z,89.39
2019-05-19T05:06:44.833Z,89.18
2019-05-19T05:07:44.826Z,89.29
2019-05-19T05:08:44.802Z,89.70
2019-05-19T05:09:44.788Z,89.59
2019-05-19T05:10:44.781Z,87.85
2019-05-19T05:11:44.766Z,87.55
2019-05-19T05:12:44.776Z,87.85
2019-05-19T05:13:44.743Z,87.61
2019-05-19T05:14:44.732Z,88.43
2019-05-19T05:15:44.740Z,88.84
2019-05-19T05:16:44.707Z,88.94
2019-05-19T05:17:44.730Z,88.79
2019-05-19T05:18:47.603Z,88.70
2019-05-19T05:19:44.681Z,88.90
2019-05-19T05:20:44.699Z,88.90
2019-05-19T05:21:44.652Z,88.79
2019-05-19T05:22:44.654Z,89.47
2019-05-19T05:23:44.656Z,88.59
2019-05-19T05:24:44.621Z,89.26
2019-05-19T05:25:44.662Z,88.65
2019-05-19T05:26:44.598Z,88.55
2019-05-19T05:27:44.585Z,88.51
2019-05-19T05:28:44.614Z,88.82
2019-05-19T05:29:44.589Z,88.51
2019-05-19T05:30:44.554Z,87.79
2019-05-19T05:31:44.549Z,87.35
2019-05-19T05:32:44.537Z,88.37
2019-05-19T05:33:44.549Z,88.47
2019-05-19T05:34:44.677Z,87.85
2019-05-19T05:35:44.517Z,87.71
2019-05-19T05:36:44.555Z,87.61
2019-05-19T05:37:44.474Z,87.92
2019-05-19T05:38:44.469Z,87.71
2019-05-19T05:39:44.473Z,87.57
2019-05-19T05:40:44.443Z,88.79
2019-05-19T05:41:44.439Z,90.12
2019-05-19T05:42:44.424Z,90.38
2019-05-19T05:43:44.422Z,89.61
2019-05-19T05:44:44.407Z,89.36
2019-05-19T05:45:44.406Z,89.47
2019-05-19T05:46:44.371Z,88.40
2019-05-19T05:47:44.365Z,87.90
2019-05-19T05:48:47.033Z,87.49
2019-05-19T05:49:44.360Z,87.38
2019-05-19T05:50:44.341Z,87.18
2019-05-19T05:51:44.323Z,86.98
2019-05-19T05:52:44.305Z,86.94
2019-05-19T05:53:44.293Z,86.83
2019-05-19T05:54:44.308Z,86.74
2019-05-19T05:55:44.276Z,85.82
2019-05-19T05:56:44.257Z,85.21
2019-05-19T05:57:44.251Z,86.19
2019-05-19T05:58:44.237Z,85.88
2019-05-19T05:59:44.223Z,85.47
2019-05-19T06:00:44.225Z,85.68
2019-05-19T06:01:44.202Z,85.58
2019-05-19T06:02:44.197Z,85.64
2019-05-19T06:03:44.182Z,85.64
2019-05-19T06:04:44.187Z,84.62
2019-05-19T06:05:44.207Z,85.03
2019-05-19T06:06:45.905Z,84.72
2019-05-19T06:07:44.169Z,84.21
2019-05-19T06:08:44.129Z,84.52
2019-05-19T06:09:44.117Z,84.42
2019-05-19T06:10:44.250Z,84.58
2019-05-19T06:11:44.091Z,84.58
2019-05-19T06:12:44.082Z,83.87
2019-05-19T06:13:44.086Z,84.07
2019-05-19T06:14:44.057Z,84.68
2019-05-19T06:15:44.079Z,83.76
2019-05-19T06:16:44.041Z,84.68
2019-05-19T06:17:44.025Z,84.64
2019-05-19T06:18:44.019Z,84.64
2019-05-19T06:19:44.009Z,85.66
2019-05-19T06:20:43.993Z,84.84
2019-05-19T06:21:43.996Z,84.44
2019-05-19T06:22:55.993Z,83.48
2019-05-19T06:23:44.991Z,83.28
2019-05-19T06:24:43.959Z,83.48
2019-05-19T06:25:43.952Z,85.52
2019-05-19T06:26:43.933Z,85.47
2019-05-19T06:27:43.921Z,83.95
2019-05-19T06:28:43.908Z,83.24
2019-05-19T06:29:43.902Z,83.24
2019-05-19T06:30:43.931Z,83.24
2019-05-19T06:31:43.886Z,83.54
2019-05-19T06:32:43.873Z,82.84
2019-05-19T06:33:43.848Z,83.04
2019-05-19T06:34:43.839Z,82.53
2019-05-19T06:35:43.861Z,82.94
2019-05-19T06:36:43.839Z,82.70
2019-05-19T06:37:43.809Z,82.19
2019-05-19T06:38:43.816Z,82.43
2019-05-19T06:39:43.784Z,81.99
2019-05-19T06:40:43.771Z,82.29
2019-05-19T06:41:43.781Z,81.99
2019-05-19T06:42:43.830Z,82.09
2019-05-19T06:43:43.741Z,81.74
2019-05-19T06:44:43.737Z,81.78
2019-05-19T06:45:43.719Z,81.78
2019-05-19T06:46:43.729Z,82.35
2019-05-19T06:47:43.695Z,82.05
2019-05-19T06:48:43.682Z,81.85
2019-05-19T06:49:43.677Z,80.39
2019-05-19T06:50:43.660Z,81.30
2019-05-19T06:51:43.668Z,81.40
2019-05-19T06:52:43.636Z,80.69
2019-05-19T06:53:43.631Z,81.50
2019-05-19T06:54:43.621Z,80.96
2019-05-19T06:55:43.614Z,81.16
2019-05-19T06:56:43.613Z,81.57
2019-05-19T06:57:43.598Z,81.46
2019-05-19T06:58:43.573Z,79.80
2019-05-19T06:59:43.572Z,79.20
2019-05-19T07:00:43.552Z,79.10
2019-05-19T07:01:43.539Z,79.97
2019-05-19T07:02:43.533Z,79.16
2019-05-19T07:03:43.525Z,78.66
2019-05-19T07:04:43.502Z,78.86
2019-05-19T07:05:43.714Z,79.26
2019-05-19T07:06:43.537Z,78.45
2019-05-19T07:07:43.483Z,78.52
2019-05-19T07:08:43.470Z,77.00
2019-05-19T07:09:57.522Z,76.46
2019-05-19T07:10:44.439Z,76.79
2019-05-19T07:11:43.447Z,76.46
2019-05-19T07:12:43.431Z,75.85
2019-05-19T07:13:43.418Z,74.74
2019-05-19T07:14:43.395Z,74.84
2019-05-19T07:15:43.407Z,74.84
2019-05-19T07:16:43.376Z,75.01
2019-05-19T07:17:43.385Z,74.84
2019-05-19T07:18:43.363Z,74.80
2019-05-19T07:19:43.341Z,73.90
2019-05-19T07:20:43.346Z,73.79
2019-05-19T07:21:43.324Z,74.50
2019-05-19T07:22:43.344Z,73.25
2019-05-19T07:23:43.313Z,72.34
2019-05-19T07:24:43.292Z,73.05
2019-05-19T07:25:43.275Z,71.84
2019-05-19T07:26:43.266Z,71.94
2019-05-19T07:27:43.251Z,71.23
2019-05-19T07:28:43.275Z,71.30
2019-05-19T07:29:43.235Z,70.89
2019-05-19T07:30:43.222Z,70.69
2019-05-19T07:31:43.206Z,71.30
2019-05-19T07:32:43.196Z,70.76
2019-05-19T07:33:43.185Z,72.17
2019-05-19T07:34:43.200Z,72.04
2019-05-19T07:35:43.167Z,72.24
2019-05-19T07:36:43.158Z,71.20
2019-05-19T07:37:43.171Z,70.89
2019-05-19T07:38:43.133Z,71.60
2019-05-19T07:39:43.136Z,71.26
2019-05-19T07:40:43.115Z,70.86
2019-05-19T07:41:43.099Z,71.84
2019-05-19T07:42:43.091Z,69.99
2019-05-19T07:43:43.080Z,70.26
2019-05-19T07:44:45.314Z,70.43
2019-05-19T07:45:43.086Z,68.48
2019-05-19T07:46:43.045Z,67.94
2019-05-19T07:47:43.036Z,67.71
2019-05-19T07:48:43.026Z,65.77
2019-05-19T07:49:43.022Z,63.33
2019-05-19T07:50:43.005Z,63.84
2019-05-19T07:51:43.019Z,65.44
2019-05-19T07:52:42.997Z,64.84
2019-05-19T07:53:43.480Z,63.81
2019-05-19T07:54:42.960Z,63.37
2019-05-19T07:55:42.975Z,64.18
2019-05-19T07:56:42.955Z,64.37
2019-05-19T07:57:42.934Z,63.75
2019-05-19T07:58:42.921Z,61.94
2019-05-19T07:59:42.914Z,62.81
2019-05-19T08:00:42.962Z,62.61
2019-05-19T08:01:42.911Z,61.41
2019-05-19T08:02:42.879Z,61.91
2019-05-19T08:03:42.867Z,61.11
2019-05-19T08:04:42.862Z,60.38
2019-05-19T08:05:42.863Z,61.28
2019-05-19T08:06:42.844Z,60.58
2019-05-19T08:07:42.837Z,60.45
2019-05-19T08:08:42.823Z,60.85
2019-05-19T08:09:42.806Z,59.45
2019-05-19T08:10:42.810Z,60.55
2019-05-19T08:11:42.806Z,60.62
2019-05-19T08:12:42.778Z,60.82
2019-05-19T08:13:42.765Z,59.89
2019-05-19T08:14:42.782Z,58.69
2019-05-19T08:15:42.744Z,58.49
2019-05-19T08:16:42.738Z,59.69
2019-05-19T08:17:42.746Z,61.16
2019-05-19T08:18:42.717Z,58.56
2019-05-19T08:19:42.708Z,61.04
2019-05-19T08:20:42.709Z,60.14
2019-05-19T08:21:42.687Z,58.71
2019-05-19T08:22:42.675Z,56.88
2019-05-19T08:23:58.564Z,56.59
2019-05-19T08:24:43.655Z,56.68
2019-05-19T08:25:42.647Z,56.48
2019-05-19T08:26:42.687Z,56.68
2019-05-19T08:27:42.628Z,57.78
2019-05-19T08:28:42.626Z,59.58
2019-05-19T08:29:42.605Z,57.35
2019-05-19T08:30:42.594Z,56.21
2019-05-19T08:31:42.588Z,53.69
2019-05-19T08:32:42.627Z,53.89
2019-05-19T08:33:42.585Z,53.96
2019-05-19T08:34:42.549Z,54.73
2019-05-19T08:35:42.543Z,54.50
2019-05-19T08:36:42.554Z,51.60
2019-05-19T08:37:42.531Z,51.57
2019-05-19T08:38:42.521Z,51.75
2019-05-19T08:39:42.504Z,48.94
2019-05-19T08:40:42.493Z,50.23
2019-05-19T08:41:42.482Z,49.44
2019-05-19T08:42:42.508Z,51.23
2019-05-19T08:43:42.465Z,49.34
2019-05-19T08:44:42.452Z,51.20
2019-05-19T08:45:42.448Z,51.30
2019-05-19T08:46:42.429Z,47.31
2019-05-19T08:47:42.427Z,49.71
2019-05-19T08:48:42.421Z,49.02
2019-05-19T08:49:42.401Z,48.02
2019-05-19T08:50:42.386Z,48.65
2019-05-19T08:51:42.418Z,49.07
2019-05-19T08:52:42.373Z,48.96
2019-05-19T08:53:42.382Z,50.16
2019-05-19T08:54:42.346Z,50.26
2019-05-19T08:55:42.337Z,52.84
2019-05-19T08:56:42.336Z,51.95
2019-05-19T08:57:42.329Z,50.13
2019-05-19T08:58:42.320Z,49.24
2019-05-19T08:59:42.293Z,49.63
2019-05-19T09:00:42.292Z,48.94
2019-05-19T09:01:42.279Z,50.03
2019-05-19T09:02:42.267Z,49.76
2019-05-19T09:03:42.273Z,49.88
2019-05-19T09:04:42.264Z,49.78
2019-05-19T09:05:42.249Z,49.88
2019-05-19T09:06:42.231Z,50.31
2019-05-19T09:07:42.230Z,50.40
2019-05-19T09:08:42.203Z,50.80
2019-05-19T09:09:42.209Z,51.50
2019-05-19T09:10:42.188Z,52.09
2019-05-19T09:11:42.170Z,50.31
2019-05-19T09:12:42.168Z,51.30
2019-05-19T09:13:42.160Z,50.90
2019-05-19T09:14:42.162Z,50.50
2019-05-19T09:15:42.135Z,51.50
2019-05-19T09:16:42.132Z,51.89
2019-05-19T09:17:42.114Z,52.09
2019-05-19T09:18:42.120Z,51.10
2019-05-19T09:19:42.111Z,52.19
2019-05-19T09:20:42.107Z,52.86
2019-05-19T09:21:42.111Z,49.76
2019-05-19T09:22:42.064Z,49.76
2019-05-19T09:23:42.055Z,50.53
2019-05-19T09:24:42.047Z,52.79
2019-05-19T09:25:42.070Z,48.42
2019-05-19T09:26:42.025Z,48.92
2019-05-19T09:27:42.024Z,48.99
2019-05-19T09:28:42.010Z,50.31
2019-05-19T09:29:42.005Z,49.63
2019-05-19T09:30:41.996Z,49.91
2019-05-19T09:31:41.988Z,49.93
2019-05-19T09:32:41.974Z,50.93
2019-05-19T09:33:41.960Z,49.04
2019-05-19T09:34:41.946Z,49.74
2019-05-19T09:35:41.951Z,50.31
2019-05-19T09:36:41.930Z,49.91
2019-05-19T09:37:41.927Z,48.92
2019-05-19T09:38:41.911Z,49.02
2019-05-19T09:39:41.898Z,49.51
2019-05-19T09:40:41.900Z,50.01
2019-05-19T09:41:41.879Z,48.72
2019-05-19T09:42:41.883Z,49.32
2019-05-19T09:43:41.866Z,50.01
2019-05-19T09:44:41.849Z,51.20
2019-05-19T09:45:41.856Z,51.37
2019-05-19T09:46:41.844Z,50.48
2019-05-19T09:47:41.828Z,49.46
2019-05-19T09:48:41.819Z,50.56
2019-05-19T09:49:41.804Z,49.24
2019-05-19T09:50:41.800Z,48.03
2019-05-19T09:51:41.796Z,48.40
2019-05-19T09:52:41.783Z,47.12
2019-05-19T09:53:41.771Z,47.34
2019-05-19T09:54:45.317Z,49.10
2019-05-19T09:55:41.748Z,48.11
2019-05-19T09:56:41.751Z,46.92
2019-05-19T09:57:41.732Z,47.00
2019-05-19T09:58:41.767Z,48.08
2019-05-19T09:59:41.716Z,46.50
2019-05-19T10:00:41.716Z,48.65
2019-05-19T10:01:41.712Z,48.65
2019-05-19T10:02:41.703Z,47.17
2019-05-19T10:03:41.679Z,45.07
2019-05-19T10:04:41.668Z,46.66
2019-05-19T10:05:41.659Z,45.35
2019-05-19T10:06:41.754Z,45.15
2019-05-19T10:07:41.681Z,45.84
2019-05-19T10:08:41.677Z,44.64
2019-05-19T10:09:41.640Z,45.20
2019-05-19T10:10:41.628Z,46.39
2019-05-19T10:11:41.618Z,44.00
2019-05-19T10:12:41.666Z,44.69
2019-05-19T10:13:41.620Z,44.96
2019-05-19T10:14:41.587Z,44.43
2019-05-19T10:15:41.610Z,45.21
2019-05-19T10:16:41.571Z,43.42
2019-05-19T10:17:41.569Z,41.35
2019-05-19T10:18:41.549Z,43.05
2019-05-19T10:19:41.541Z,43.64
2019-05-19T10:20:41.534Z,42.85
2019-05-19T10:21:41.527Z,43.96
2019-05-19T10:22:41.530Z,42.58
2019-05-19T10:23:41.507Z,42.68
2019-05-19T10:24:56.339Z,42.38
2019-05-19T10:25:42.496Z,43.21
2019-05-19T10:26:41.482Z,44.00
2019-05-19T10:27:41.489Z,44.10
2019-05-19T10:28:41.467Z,43.51
2019-05-19T10:29:41.456Z,44.20
2019-05-19T10:30:41.458Z,43.70
2019-05-19T10:31:41.438Z,44.51
2019-05-19T10:32:41.466Z,43.90
2019-05-19T10:33:41.429Z,43.73
2019-05-19T10:34:41.406Z,43.41
2019-05-19T10:35:41.399Z,42.20
2019-05-19T10:36:41.397Z,42.87
2019-05-19T10:37:41.382Z,42.55
2019-05-19T10:38:41.381Z,41.09
2019-05-19T10:39:41.358Z,42.76
2019-05-19T10:40:41.436Z,40.48
2019-05-19T10:41:41.345Z,40.27
2019-05-19T10:42:41.346Z,38.99
2019-05-19T10:43:41.335Z,40.47
2019-05-19T10:44:41.315Z,41.35
2019-05-19T10:45:41.308Z,41.16
2019-05-19T10:46:41.297Z,41.63
2019-05-19T10:47:41.280Z,39.18
2019-05-19T10:48:41.293Z,39.86
2019-05-19T10:49:43.127Z,38.48
2019-05-19T10:50:41.257Z,38.87
2019-05-19T10:51:41.243Z,38.87
2019-05-19T10:52:41.254Z,39.25
2019-05-19T10:53:41.230Z,38.07
2019-05-19T10:54:41.233Z,37.48
2019-05-19T10:55:41.206Z,38.58
2019-05-19T10:56:41.195Z,39.26
2019-05-19T10:57:41.186Z,38.09
2019-05-19T10:58:41.180Z,38.38
2019-05-19T10:59:41.166Z,39.48
2019-05-19T11:00:41.169Z,42.32
2019-05-19T11:01:41.150Z,39.47
2019-05-19T11:02:41.139Z,37.12
2019-05-19T11:03:41.134Z,38.20
2019-05-19T11:04:41.122Z,37.91
2019-05-19T11:05:41.121Z,38.32
2019-05-19T11:06:41.117Z,37.05
2019-05-19T11:07:41.096Z,38.64
2019-05-19T11:08:41.074Z,38.54
2019-05-19T11:09:41.071Z,38.64
2019-05-19T11:10:41.076Z,38.14
2019-05-19T11:11:41.055Z,37.65
2019-05-19T11:12:41.038Z,37.26
2019-05-19T11:13:41.030Z,38.14
2019-05-19T11:14:41.021Z,39.70
2019-05-19T11:15:41.028Z,37.83
2019-05-19T11:16:41.003Z,38.24
2019-05-19T11:17:40.992Z,38.42
2019-05-19T11:18:40.981Z,38.51
2019-05-19T11:19:40.973Z,38.20
2019-05-19T11:20:40.972Z,37.71
2019-05-19T11:21:40.963Z,38.30
2019-05-19T11:22:40.946Z,38.49
2019-05-19T11:23:40.974Z,38.97
2019-05-19T11:24:40.928Z,38.38
2019-05-19T11:25:51.223Z,38.09
2019-05-19T11:26:41.955Z,38.56
2019-05-19T11:27:40.896Z,37.97
2019-05-19T11:28:40.896Z,38.76
2019-05-19T11:29:40.883Z,38.15
2019-05-19T11:30:40.872Z,36.67
2019-05-19T11:31:40.877Z,36.77
2019-05-19T11:32:40.874Z,36.69
2019-05-19T11:33:40.845Z,37.57
2019-05-19T11:34:40.833Z,36.99
2019-05-19T11:35:40.828Z,37.48
2019-05-19T11:36:40.860Z,37.28
2019-05-19T11:37:40.806Z,37.08
2019-05-19T11:38:40.798Z,38.17
2019-05-19T11:39:40.790Z,36.88
2019-05-19T11:40:40.805Z,38.05
2019-05-19T11:41:40.771Z,37.76
2019-05-19T11:42:40.778Z,35.88
2019-05-19T11:43:40.767Z,36.57
2019-05-19T11:44:40.752Z,38.93
2019-05-19T11:45:40.732Z,37.07
2019-05-19T11:46:40.732Z,37.44
2019-05-19T11:47:40.765Z,36.75
2019-05-19T11:48:40.716Z,35.38
2019-05-19T11:49:40.702Z,36.87
2019-05-19T11:50:42.175Z,36.57
2019-05-19T11:51:40.677Z,37.18
2019-05-19T11:52:40.679Z,36.99
2019-05-19T11:53:40.679Z,36.90
2019-05-19T11:54:40.646Z,37.30
2019-05-19T11:55:40.663Z,35.72
2019-05-19T11:56:40.628Z,36.61
2019-05-19T11:57:40.625Z,37.01
2019-05-19T11:58:40.610Z,35.82
2019-05-19T11:59:40.619Z,36.90
2019-05-19T12:00:40.651Z,36.33
2019-05-19T12:01:40.578Z,36.53
2019-05-19T12:02:40.567Z,36.07
2019-05-19T12:03:40.561Z,37.66
2019-05-19T12:04:40.551Z,37.37
2019-05-19T12:05:40.554Z,38.47
2019-05-19T12:06:40.532Z,38.49
2019-05-19T12:07:40.532Z,37.21
2019-05-19T12:08:40.528Z,37.11
2019-05-19T12:09:40.501Z,38.41
2019-05-19T12:10:40.524Z,38.90
2019-05-19T12:11:40.516Z,38.02
2019-05-19T12:12:40.473Z,38.33
2019-05-19T12:13:40.466Z,38.82
2019-05-19T12:14:40.449Z,38.92
2019-05-19T12:15:40.436Z,38.90
2019-05-19T12:16:40.453Z,39.40
2019-05-19T12:17:40.414Z,44.06
2019-05-19T12:18:40.407Z,44.64
2019-05-19T12:19:40.400Z,40.11
2019-05-19T12:20:40.392Z,39.32
2019-05-19T12:21:40.382Z,39.83
2019-05-19T12:22:40.389Z,40.26
2019-05-19T12:23:40.357Z,41.79
2019-05-19T12:24:40.347Z,42.50
2019-05-19T12:25:40.344Z,42.92
2019-05-19T12:26:40.317Z,43.71
2019-05-19T12:27:40.309Z,43.64
2019-05-19T12:28:40.297Z,42.65
2019-05-19T12:29:40.291Z,43.76
2019-05-19T12:30:40.288Z,43.06
2019-05-19T12:31:40.273Z,44.37
2019-05-19T12:32:40.251Z,44.65
2019-05-19T12:33:51.509Z,44.95
2019-05-19T12:34:41.239Z,44.55
2019-05-19T12:35:40.230Z,43.76
2019-05-19T12:36:40.216Z,43.46
2019-05-19T12:37:40.197Z,43.06
2019-05-19T12:38:40.186Z,42.77
2019-05-19T12:39:40.210Z,42.99
2019-05-19T12:40:40.170Z,44.97
2019-05-19T12:41:40.165Z,42.79
2019-05-19T12:42:40.146Z,43.98
2019-05-19T12:43:40.134Z,43.40
2019-05-19T12:44:40.123Z,44.40
2019-05-19T12:45:40.126Z,44.79
2019-05-19T12:46:40.107Z,44.70
2019-05-19T12:47:40.088Z,44.40
2019-05-19T12:48:40.079Z,45.31
2019-05-19T12:49:40.074Z,45.51
2019-05-19T12:50:40.080Z,45.01
2019-05-19T12:51:40.046Z,44.92
2019-05-19T12:52:40.049Z,45.01